Time;durP1;ratioP1;P1;durP2;ratioP2;P2;SDS_P1;SDS_P2;PMS_P1;PMS_P2;Temp;Humidity;BMP_temperature;BMP_pressure;BME280_temperature;BME280_humidity;BME280_pressure;Samples;Min_cycle;Max_cycle;Signal;HPM_P1;HPM_P2
2022/05/08 05:04:02;;;;;;;;;;;10.10;99.90;;;;;;4906793;29;19931;-78
2022/05/08 05:06:31;;;;;;;;;;;10.10;99.90;;;;;;4907457;29;19930;-79
2022/05/08 05:08:57;;;;;;;;;;;10.10;99.90;;;;;;4908539;29;20180;-79
2022/05/08 05:11:28;;;;;;;;;;;10.10;99.90;;;;;;4908134;29;19907;-79
2022/05/08 05:13:56;;;;;;;;;;;10.10;99.90;;;;;;4907279;29;19908;-80
2022/05/08 05:16:25;;;;;;;;;;;10.20;99.90;;;;;;4889874;29;19918;-80
2022/05/08 05:18:55;;;;;;;;;;;10.30;99.90;;;;;;4920866;29;19931;-79
2022/05/08 05:21:21;;;;;;;;;;;10.40;99.90;;;;;;4889932;29;19915;-78
2022/05/08 05:23:49;;;;;;;;;;;10.50;99.90;;;;;;4906902;29;19918;-79
2022/05/08 05:26:15;;;;;;;;;;;10.50;99.90;;;;;;4889477;29;19939;-78
2022/05/08 05:28:43;;;;;;;;;;;10.50;99.90;;;;;;4906706;29;19907;-77
2022/05/08 05:31:09;;;;;;;;;;;10.50;99.90;;;;;;4888392;29;19915;-78
2022/05/08 05:33:34;;;;;;;;;;;10.60;99.90;;;;;;4902969;29;19918;-78
2022/05/08 05:36:00;;;;;;;;;;;10.60;99.90;;;;;;4883453;29;19919;-79
2022/05/08 05:38:26;;;;;;;;;;;10.60;99.90;;;;;;4898344;29;19911;-77
2022/05/08 05:40:51;;;;;;;;;;;10.70;99.90;;;;;;4884505;29;19915;-78
2022/05/08 05:43:17;;;;;;;;;;;10.70;99.90;;;;;;4893222;29;19918;-78
2022/05/08 05:45:46;;;;;;;;;;;10.80;99.90;;;;;;4876242;29;20165;-79
2022/05/08 05:48:17;;;;;;;;;;;10.80;99.90;;;;;;4860766;29;19982;-78
2022/05/08 05:50:55;;;;;;;;;;;10.90;99.90;;;;;;4898759;29;19911;-78
2022/05/08 05:53:21;;;;;;;;;;;10.90;99.90;;;;;;4897844;29;20077;-78
2022/05/08 05:55:47;;;;;;;;;;;11.10;99.90;;;;;;4897852;29;19912;-78
2022/05/08 05:58:13;;;;;;;;;;;11.10;99.90;;;;;;4898406;29;19928;-78
2022/05/08 06:00:38;;;;;;;;;;;11.10;99.90;;;;;;4881437;29;19915;-78
2022/05/08 06:03:04;;;;;;;;;;;11.10;99.90;;;;;;4930287;29;20116;-78
2022/05/08 06:05:30;;;;;;;;;;;11.10;99.90;;;;;;4926404;29;19958;-78
2022/05/08 06:07:55;;;;;;;;;;;11.20;99.90;;;;;;4939127;29;19918;-78
2022/05/08 06:10:24;;;;;;;;;;;11.30;99.90;;;;;;4921318;29;20174;-79
2022/05/08 06:12:51;;;;;;;;;;;11.30;99.90;;;;;;4914206;29;19932;-80
2022/05/08 06:15:16;;;;;;;;;;;11.40;99.90;;;;;;4927118;29;20223;-78
2022/05/08 06:17:45;;;;;;;;;;;11.40;99.90;;;;;;4897696;29;19938;-78
2022/05/08 06:20:11;;;;;;;;;;;11.50;99.90;;;;;;4915612;29;19983;-80
2022/05/08 06:22:38;;;;;;;;;;;11.50;99.90;;;;;;4921995;29;19910;-80
2022/05/08 06:25:22;;;;;;;;;;;11.60;99.90;;;;;;4923961;29;20236;-80
2022/05/08 06:27:48;;;;;;;;;;;11.60;99.90;;;;;;4921678;29;19911;-80
2022/05/08 06:30:17;;;;;;;;;;;11.70;99.90;;;;;;4923276;29;19922;-78
2022/05/08 06:32:42;;;;;;;;;;;11.80;99.90;;;;;;4917809;29;20156;-80
2022/05/08 06:35:14;;;;;;;;;;;11.90;99.90;;;;;;4920105;29;19911;-79
2022/05/08 06:37:40;;;;;;;;;;;12.00;99.90;;;;;;4953840;29;20104;-79
2022/05/08 06:40:06;;;;;;;;;;;12.00;99.90;;;;;;4917566;29;19921;-78
2022/05/08 06:42:32;;;;;;;;;;;12.10;99.90;;;;;;4917982;29;19910;-77
2022/05/08 06:45:01;;;;;;;;;;;12.10;99.90;;;;;;4934361;29;19914;-79
2022/05/08 06:47:26;;;;;;;;;;;12.20;99.90;;;;;;4910232;29;20030;-76
2022/05/08 06:49:52;;;;;;;;;;;12.30;99.90;;;;;;4929506;29;20082;-76
2022/05/08 06:52:18;;;;;;;;;;;12.40;99.90;;;;;;4916524;29;19933;-76
2022/05/08 06:54:44;;;;;;;;;;;12.50;99.90;;;;;;4919278;29;19938;-76
2022/05/08 06:57:11;;;;;;;;;;;12.70;99.90;;;;;;4934799;29;20095;-76
2022/05/08 07:02:21;;;;;;;;;;;13.10;99.90;;;;;;4915008;29;19930;-78
2022/05/08 07:04:46;;;;;;;;;;;13.10;99.90;;;;;;4914340;29;19974;-77
2022/05/08 07:07:13;;;;;;;;;;;13.20;99.90;;;;;;4929860;29;19973;-76
2022/05/08 07:09:41;;;;;;;;;;;13.20;99.90;;;;;;4916812;29;20128;-77
2022/05/08 07:12:08;;;;;;;;;;;13.30;99.90;;;;;;4913989;29;19918;-77
2022/05/08 07:14:34;;;;;;;;;;;13.30;99.90;;;;;;4920746;29;20145;-80
2022/05/08 07:17:00;;;;;;;;;;;13.30;99.90;;;;;;4902480;29;19986;-77
2022/05/08 07:19:27;;;;;;;;;;;13.40;99.90;;;;;;4917525;29;19918;-78
2022/05/08 07:21:52;;;;;;;;;;;13.50;99.90;;;;;;4917795;29;20201;-77
2022/05/08 07:24:18;;;;;;;;;;;13.60;99.90;;;;;;4917509;29;19967;-77
2022/05/08 07:26:45;;;;;;;;;;;13.80;99.90;;;;;;4914892;29;19925;-79
2022/05/08 07:29:11;;;;;;;;;;;13.70;99.90;;;;;;4900411;29;19910;-79
2022/05/08 07:31:38;;;;;;;;;;;14.00;99.90;;;;;;4895596;29;19911;-77
2022/05/08 07:36:48;;;;;;;;;;;14.30;99.90;;;;;;4930555;29;19911;-78
2022/05/08 07:39:14;;;;;;;;;;;14.40;99.90;;;;;;4939318;29;20096;-77
2022/05/08 07:41:40;;;;;;;;;;;14.60;99.90;;;;;;4938801;29;19922;-76
2022/05/08 07:44:06;;;;;;;;;;;14.70;99.90;;;;;;4918855;29;19966;-77
2022/05/08 07:46:32;;;;;;;;;;;14.80;99.60;;;;;;4926912;29;20187;-76
2022/05/08 07:48:57;;;;;;;;;;;14.90;99.10;;;;;;4921776;29;19918;-78
2022/05/08 07:51:23;;;;;;;;;;;15.20;99.00;;;;;;4937584;29;19916;-79
2022/05/08 07:53:49;;;;;;;;;;;15.40;98.60;;;;;;4936381;29;19946;-77
2022/05/08 07:56:15;;;;;;;;;;;15.50;98.10;;;;;;4938152;29;20318;-77
2022/05/08 07:58:40;;;;;;;;;;;15.60;98.00;;;;;;4939405;29;19919;-76
2022/05/08 08:01:06;;;;;;;;;;;15.70;97.30;;;;;;4935684;29;19981;-80
2022/05/08 08:03:32;;;;;;;;;;;15.90;97.60;;;;;;4919954;29;20099;-77
2022/05/08 08:05:59;;;;;;;;;;;15.90;96.70;;;;;;4916574;29;19914;-79
2022/05/08 08:08:26;;;;;;;;;;;16.10;96.70;;;;;;4919255;29;19911;-75
2022/05/08 08:10:53;;;;;;;;;;;16.20;95.70;;;;;;4933538;29;19913;-76
2022/05/08 08:13:22;;;;;;;;;;;16.40;95.60;;;;;;4917195;29;20149;-78
2022/05/08 08:15:51;;;;;;;;;;;16.50;95.50;;;;;;4917046;29;19919;-77
2022/05/08 08:18:18;;;;;;;;;;;16.70;94.50;;;;;;4912274;29;20166;-76
2022/05/08 08:20:44;;;;;;;;;;;16.90;94.30;;;;;;4911935;29;19911;-76
2022/05/08 08:23:10;;;;;;;;;;;17.10;94.10;;;;;;4923097;29;19911;-77
2022/05/08 08:25:36;;;;;;;;;;;17.20;93.80;;;;;;4913452;29;19994;-78
2022/05/08 08:28:02;;;;;;;;;;;17.40;93.40;;;;;;4931030;29;19965;-80
2022/05/08 08:30:28;;;;;;;;;;;17.60;92.80;;;;;;4930442;29;19911;-78
2022/05/08 08:32:54;;;;;;;;;;;17.70;92.60;;;;;;4912703;29;20089;-77
2022/05/08 08:35:19;;;;;;;;;;;17.80;92.20;;;;;;4913601;29;19907;-80
2022/05/08 08:37:45;;;;;;;;;;;18.20;92.20;;;;;;4905573;29;19912;-78
2022/05/08 08:40:11;;;;;;;;;;;18.40;91.20;;;;;;4929724;29;21726;-79
2022/05/08 08:42:41;;;;;;;;;;;18.70;90.90;;;;;;4924687;29;19975;-78
2022/05/08 08:48:03;;;;;;;;;;;19.20;89.60;;;;;;4916959;29;19929;-78
2022/05/08 08:50:29;;;;;;;;;;;19.50;88.20;;;;;;4899939;29;19929;-76
2022/05/08 08:52:56;;;;;;;;;;;19.60;88.10;;;;;;4905296;29;19910;-77
2022/05/08 08:55:22;;;;;;;;;;;19.80;88.10;;;;;;4920298;29;19949;-77
2022/05/08 08:57:48;;;;;;;;;;;19.70;86.20;;;;;;4920564;29;19918;-77
2022/05/08 09:00:14;;;;;;;;;;;19.70;85.90;;;;;;4935736;29;20001;-77
2022/05/08 09:02:40;;;;;;;;;;;19.70;86.90;;;;;;4911195;29;20241;-78
2022/05/08 09:05:07;;;;;;;;;;;19.80;86.20;;;;;;4904659;29;19958;-77
2022/05/08 09:07:39;;;;;;;;;;;19.90;86.40;;;;;;4934772;29;20246;-76
2022/05/08 09:10:13;;;;;;;;;;;20.40;85.60;;;;;;4906679;29;20085;-77
2022/05/08 09:12:40;;;;;;;;;;;20.60;84.70;;;;;;4930314;29;19911;-76
2022/05/08 09:15:28;;;;;;;;;;;20.90;82.90;;;;;;4917138;29;19987;-77
2022/05/08 09:18:03;;;;;;;;;;;20.80;83.20;;;;;;4909457;29;19915;-79
2022/05/08 09:20:32;;;;;;;;;;;20.80;83.50;;;;;;4937047;29;19919;-79
2022/05/08 09:23:02;;;;;;;;;;;20.80;83.90;;;;;;4937202;29;20192;-78
2022/05/08 09:25:46;;;;;;;;;;;21.00;83.50;;;;;;4938868;29;19911;-76
2022/05/08 09:28:14;;;;;;;;;;;21.20;83.00;;;;;;4937011;29;20298;-78
2022/05/08 09:31:00;;;;;;;;;;;21.30;82.70;;;;;;4936468;29;20157;-76
2022/05/08 09:33:27;;;;;;;;;;;21.50;81.30;;;;;;4927411;29;20238;-78
2022/05/08 09:35:53;;;;;;;;;;;21.60;81.80;;;;;;4930454;29;19989;-78
2022/05/08 09:38:19;;;;;;;;;;;21.70;80.80;;;;;;4916671;29;19911;-77
2022/05/08 09:40:45;;;;;;;;;;;21.90;81.00;;;;;;4891320;29;19918;-78
2022/05/08 09:43:27;;;;;;;;;;;22.00;80.40;;;;;;4916055;28;20017;-77
2022/05/08 09:45:57;;;;;;;;;;;22.00;79.70;;;;;;4901668;29;19911;-77
2022/05/08 09:48:24;;;;;;;;;;;22.30;79.40;;;;;;4920128;29;19930;-77
2022/05/08 09:50:49;;;;;;;;;;;22.20;79.80;;;;;;4910101;29;19919;-79
2022/05/08 09:53:18;;;;;;;;;;;22.30;78.90;;;;;;4902896;29;20117;-77
2022/05/08 09:55:44;;;;;;;;;;;22.30;79.40;;;;;;4898629;29;19986;-77
2022/05/08 09:58:10;;;;;;;;;;;22.40;78.90;;;;;;4906621;29;19917;-78
2022/05/08 10:00:38;;;;;;;;;;;22.50;77.80;;;;;;4927946;29;19918;-76
2022/05/08 10:03:06;;;;;;;;;;;22.40;78.30;;;;;;4947430;29;19918;-77
2022/05/08 10:05:32;;;;;;;;;;;22.50;78.30;;;;;;4936251;29;20062;-79
2022/05/08 10:07:59;;;;;;;;;;;22.70;77.80;;;;;;4939514;29;19906;-78
2022/05/08 10:15:55;;;;;;;;;;;22.70;77.40;;;;;;4897425;28;19923;-80
2022/05/08 10:18:32;;;;;;;;;;;22.80;77.40;;;;;;4918931;29;19906;-79
2022/05/08 10:21:08;;;;;;;;;;;23.00;77.50;;;;;;4891200;29;20196;-79
2022/05/08 10:23:34;;;;;;;;;;;23.00;77.50;;;;;;4957469;29;19918;-77
2022/05/08 10:26:15;;;;;;;;;;;23.10;77.30;;;;;;4956439;29;19978;-78
2022/05/08 10:29:06;;;;;;;;;;;23.10;77.30;;;;;;4906737;29;19955;-78
2022/05/08 10:31:37;;;;;;;;;;;23.30;76.70;;;;;;4874027;29;19990;-78
2022/05/08 10:34:05;;;;;;;;;;;23.20;77.10;;;;;;4937470;29;20172;-78
2022/05/08 10:36:31;;;;;;;;;;;23.40;77.10;;;;;;4954982;29;19910;-78
2022/05/08 10:39:20;;;;;;;;;;;23.60;76.90;;;;;;4913624;29;20186;-78
2022/05/08 10:41:45;;;;;;;;;;;23.70;71.00;;;;;;4900444;29;19927;-78
2022/05/08 10:44:31;;;;;;;;;;;24.00;68.60;;;;;;4947892;28;20227;-78
2022/05/08 10:47:15;;;;;;;;;;;24.30;67.40;;;;;;4927815;29;19919;-78
2022/05/08 10:49:41;;;;;;;;;;;24.40;66.40;;;;;;4939844;29;19910;-78
2022/05/08 10:52:07;;;;;;;;;;;24.60;67.00;;;;;;4914669;29;19937;-79
2022/05/08 10:54:39;;;;;;;;;;;24.80;67.00;;;;;;4917158;29;19969;-82
2022/05/08 10:57:34;;;;;;;;;;;24.80;64.80;;;;;;4892132;29;20236;-79
2022/05/08 11:00:14;;;;;;;;;;;24.70;65.30;;;;;;4880680;29;20277;-78
2022/05/08 11:02:47;;;;;;;;;;;24.70;65.30;;;;;;4896859;29;20097;-79
2022/05/08 11:05:18;;;;;;;;;;;24.50;65.60;;;;;;4943446;29;19917;-79
2022/05/08 11:08:03;;;;;;;;;;;24.70;65.90;;;;;;4942418;29;19938;-79
2022/05/08 11:10:58;;;;;;;;;;;25.20;65.80;;;;;;4941813;29;20196;-79
2022/05/08 11:13:24;;;;;;;;;;;25.20;65.30;;;;;;4942614;29;19911;-79
2022/05/08 11:15:50;;;;;;;;;;;25.30;65.10;;;;;;4942540;29;19913;-79
2022/05/08 11:18:29;;;;;;;;;;;25.60;64.60;;;;;;4907419;29;19910;-78
2022/05/08 11:20:59;;;;;;;;;;;25.80;63.80;;;;;;4941747;29;19960;-78
2022/05/08 11:24:03;;;;;;;;;;;26.00;63.80;;;;;;4942338;29;20197;-78
2022/05/08 11:26:30;;;;;;;;;;;26.40;63.10;;;;;;4930756;29;19910;-78
2022/05/08 11:29:01;;;;;;;;;;;27.00;62.10;;;;;;4931747;29;19979;-79
2022/05/08 11:38:03;;;;;;;;;;;28.00;60.10;;;;;;4891968;29;20126;-78
2022/05/08 11:40:34;;;;;;;;;;;27.80;59.10;;;;;;4900037;29;20078;-78
2022/05/08 11:43:31;;;;;;;;;;;27.10;59.70;;;;;;4919189;29;19950;-78
2022/05/08 11:45:58;;;;;;;;;;;26.80;60.10;;;;;;4916853;29;19911;-79
2022/05/08 11:48:30;;;;;;;;;;;26.70;60.30;;;;;;4918537;29;20137;-78
2022/05/08 11:50:56;;;;;;;;;;;26.50;60.60;;;;;;4877492;29;19971;-78
2022/05/08 11:53:43;;;;;;;;;;;26.30;61.00;;;;;;4884749;29;20189;-81
2022/05/08 11:56:30;;;;;;;;;;;26.10;61.30;;;;;;4919735;29;19915;-79
2022/05/08 11:59:18;;;;;;;;;;;26.20;61.30;;;;;;4921710;29;19911;-79
2022/05/08 12:01:54;;;;;;;;;;;26.10;61.80;;;;;;4922849;29;19919;-79
2022/05/08 12:04:29;;;;;;;;;;;26.60;61.30;;;;;;4924641;29;19918;-78
2022/05/08 12:07:13;;;;;;;;;;;26.70;61.50;;;;;;4907354;29;20276;-78
2022/05/08 12:10:12;;;;;;;;;;;26.70;62.20;;;;;;4924047;29;19911;-78
2022/05/08 12:12:39;;;;;;;;;;;26.80;61.10;;;;;;4933414;29;19911;-80
2022/05/08 12:15:11;;;;;;;;;;;26.70;61.10;;;;;;4959612;29;20223;-79
2022/05/08 12:17:39;;;;;;;;;;;26.80;61.70;;;;;;4943962;29;19910;-80
2022/05/08 12:20:18;;;;;;;;;;;27.50;61.00;;;;;;4941969;29;19911;-80
2022/05/08 12:23:03;;;;;;;;;;;27.10;60.40;;;;;;4944311;29;19917;-79
2022/05/08 12:25:29;;;;;;;;;;;26.70;61.20;;;;;;4946131;29;19917;-79
2022/05/08 12:28:17;;;;;;;;;;;27.10;61.10;;;;;;4946901;29;20001;-81
2022/05/08 12:30:42;;;;;;;;;;;27.20;60.20;;;;;;4942561;29;19911;-81
2022/05/08 12:33:49;;;;;;;;;;;27.10;60.30;;;;;;4942773;29;19958;-80
2022/05/08 12:36:15;;;;;;;;;;;27.70;59.90;;;;;;4941755;29;20100;-79
2022/05/08 12:38:41;;;;;;;;;;;29.20;58.60;;;;;;4944347;29;19911;-81
2022/05/08 12:41:07;;;;;;;;;;;29.60;56.30;;;;;;4940496;29;19987;-79
2022/05/08 12:43:33;;;;;;;;;;;29.20;57.50;;;;;;4940853;29;20149;-79
2022/05/08 12:45:58;;;;;;;;;;;28.80;57.90;;;;;;4919738;28;19942;-80
2022/05/08 12:48:24;;;;;;;;;;;28.10;58.40;;;;;;4926383;29;19949;-79
2022/05/08 12:53:49;;;;;;;;;;;27.80;58.60;;;;;;4939865;29;20077;-79
2022/05/08 12:56:20;;;;;;;;;;;28.10;57.60;;;;;;4914912;29;19911;-79
2022/05/08 13:02:10;;;;;;;;;;;27.70;58.00;;;;;;4910925;29;19923;-79
2022/05/08 13:04:49;;;;;;;;;;;27.80;57.50;;;;;;4923553;29;19911;-79
2022/05/08 13:07:27;;;;;;;;;;;27.60;57.40;;;;;;4901284;29;20203;-80
2022/05/08 13:10:32;;;;;;;;;;;27.70;56.90;;;;;;4865947;29;19959;-80
2022/05/08 13:13:20;;;;;;;;;;;27.40;57.80;;;;;;4856168;29;19959;-79
2022/05/08 13:15:45;;;;;;;;;;;27.50;56.50;;;;;;4924072;29;19998;-79
2022/05/08 13:18:11;;;;;;;;;;;27.30;57.20;;;;;;4920569;29;19970;-79
2022/05/08 13:20:36;;;;;;;;;;;27.80;56.80;;;;;;4920479;29;20165;-79
2022/05/08 13:23:02;;;;;;;;;;;27.90;56.00;;;;;;4920455;29;19923;-79
2022/05/08 13:25:28;;;;;;;;;;;27.70;55.30;;;;;;4920988;29;19915;-79
2022/05/08 13:27:53;;;;;;;;;;;27.90;55.60;;;;;;4920968;29;19966;-79
2022/05/08 13:30:19;;;;;;;;;;;27.80;55.40;;;;;;4920250;29;20236;-78
2022/05/08 13:32:45;;;;;;;;;;;28.10;54.80;;;;;;4911027;29;20150;-79
2022/05/08 13:35:11;;;;;;;;;;;28.50;54.50;;;;;;4920736;29;19918;-79
2022/05/08 13:37:36;;;;;;;;;;;29.30;53.80;;;;;;4904789;29;19981;-79
2022/05/08 13:40:03;;;;;;;;;;;29.90;53.00;;;;;;4919270;29;20201;-79
2022/05/08 13:42:31;;;;;;;;;;;29.80;53.40;;;;;;4920022;29;19952;-78
2022/05/08 13:44:57;;;;;;;;;;;30.00;53.30;;;;;;4919826;29;19923;-79
2022/05/08 13:47:22;;;;;;;;;;;30.20;52.80;;;;;;4917115;29;19923;-79
2022/05/08 13:49:48;;;;;;;;;;;30.20;52.10;;;;;;4937165;29;19950;-79
2022/05/08 13:52:14;;;;;;;;;;;30.10;52.90;;;;;;4945950;29;20085;-79
2022/05/08 13:54:42;;;;;;;;;;;30.00;52.80;;;;;;4942759;29;20196;-80
2022/05/08 13:57:08;;;;;;;;;;;29.80;53.40;;;;;;4946423;29;19930;-79
2022/05/08 13:59:34;;;;;;;;;;;30.10;53.30;;;;;;4949669;29;19931;-79
2022/05/08 14:02:00;;;;;;;;;;;29.80;53.70;;;;;;4946023;29;19964;-79
2022/05/08 14:04:25;;;;;;;;;;;29.50;53.80;;;;;;4956768;29;19917;-80
2022/05/08 14:06:51;;;;;;;;;;;29.20;54.10;;;;;;4927305;29;19910;-79
2022/05/08 14:09:17;;;;;;;;;;;29.50;54.10;;;;;;4957117;29;20007;-79
2022/05/08 14:11:43;;;;;;;;;;;29.60;54.30;;;;;;4957168;29;20104;-80
2022/05/08 14:14:09;;;;;;;;;;;29.80;54.50;;;;;;4956523;29;20096;-79
2022/05/08 14:16:35;;;;;;;;;;;29.90;54.70;;;;;;4954442;29;19938;-79
2022/05/08 14:19:01;;;;;;;;;;;29.70;54.40;;;;;;4954188;29;19925;-79
2022/05/08 14:21:26;;;;;;;;;;;29.60;54.50;;;;;;4953504;29;20019;-79
2022/05/08 14:23:52;;;;;;;;;;;29.20;54.90;;;;;;4937074;29;19906;-79
2022/05/08 14:26:18;;;;;;;;;;;29.10;55.10;;;;;;4954079;29;19918;-79
2022/05/08 14:28:44;;;;;;;;;;;29.20;54.90;;;;;;4954960;29;19926;-80
2022/05/08 14:36:39;;;;;;;;;;;29.40;54.50;;;;;;4956755;29;19964;-79
2022/05/08 14:39:05;;;;;;;;;;;29.50;54.50;;;;;;4938096;29;20188;-80
2022/05/08 14:41:31;;;;;;;;;;;29.80;54.50;;;;;;4956942;29;19919;-79
2022/05/08 14:43:57;;;;;;;;;;;29.70;54.30;;;;;;4954851;29;19910;-79
2022/05/08 14:46:55;;;;;;;;;;;29.60;54.90;;;;;;4949185;28;19918;-79
2022/05/08 14:49:31;;;;;;;;;;;29.80;54.60;;;;;;4857978;29;19918;-79
2022/05/08 14:56:22;;;;;;;;;;;28.90;55.30;;;;;;4885541;29;19990;-79
2022/05/08 14:58:44;;;;;;;;;;;29.00;55.70;;;;;;4927793;29;19918;-81
2022/05/08 15:01:12;;;;;;;;;;;29.70;55.20;;;;;;4936083;29;19926;-78
2022/05/08 15:03:38;;;;;;;;;;;29.50;55.00;;;;;;4954531;29;19956;-78
2022/05/08 15:06:04;;;;;;;;;;;29.20;55.10;;;;;;4953982;29;19917;-79
2022/05/08 15:08:30;;;;;;;;;;;29.00;55.30;;;;;;4936486;29;19930;-79
2022/05/08 15:10:55;;;;;;;;;;;29.00;55.70;;;;;;4917188;29;20188;-79
2022/05/08 15:13:21;;;;;;;;;;;29.50;55.10;;;;;;4928100;29;19910;-80
2022/05/08 15:15:47;;;;;;;;;;;29.70;55.00;;;;;;4954682;29;20191;-79
2022/05/08 15:20:59;;;;;;;;;;;30.00;54.40;;;;;;4955208;29;20139;-78
2022/05/08 15:23:25;;;;;;;;;;;29.30;54.90;;;;;;4955326;29;19973;-79
2022/05/08 15:25:50;;;;;;;;;;;29.20;54.70;;;;;;4940113;29;19910;-79
2022/05/08 15:28:16;;;;;;;;;;;29.30;54.70;;;;;;4919004;29;20173;-78
2022/05/08 15:30:42;;;;;;;;;;;29.30;54.70;;;;;;4928112;29;19923;-79
2022/05/08 15:33:07;;;;;;;;;;;29.00;55.90;;;;;;4952943;29;20223;-78
2022/05/08 15:35:36;;;;;;;;;;;28.80;55.50;;;;;;4956499;28;19970;-78
2022/05/08 15:38:02;;;;;;;;;;;28.80;55.20;;;;;;4956392;29;19911;-78
2022/05/08 15:40:27;;;;;;;;;;;28.60;55.40;;;;;;4957189;29;20207;-79
2022/05/08 15:42:53;;;;;;;;;;;29.20;55.20;;;;;;4940063;29;20232;-79
2022/05/08 15:52:29;;;;;;;;;;;;;;;;;;;;;
2022/05/08 15:55:04;;;;;;;;;;;31.00;52.70;;;;;;4792714;29;19917;-78
2022/05/08 15:57:59;;;;;;;;;;;30.30;53.20;;;;;;4789045;29;19913;-78
2022/05/08 16:00:26;;;;;;;;;;;30.10;53.60;;;;;;4783117;29;20103;-79
2022/05/08 16:02:52;;;;;;;;;;;30.30;53.70;;;;;;4810875;29;19928;-80
2022/05/08 16:05:18;;;;;;;;;;;30.00;53.00;;;;;;4833667;29;19912;-79
2022/05/08 16:07:45;;;;;;;;;;;29.70;53.60;;;;;;4847660;29;20038;-79
2022/05/08 16:10:11;;;;;;;;;;;29.50;53.50;;;;;;4864922;29;19912;-79
2022/05/08 16:23:37;;;;;;;;;;;28.80;54.70;;;;;;4862694;29;19918;-78
2022/05/08 16:26:09;;;;;;;;;;;28.50;55.10;;;;;;4861188;29;19912;-79
2022/05/08 16:28:40;;;;;;;;;;;28.80;54.60;;;;;;4915378;29;19910;-78
2022/05/08 16:31:06;;;;;;;;;;;28.90;54.60;;;;;;4938030;29;19917;-80
2022/05/08 16:33:32;;;;;;;;;;;29.00;54.70;;;;;;4956040;29;19906;-81
2022/05/08 16:36:07;;;;;;;;;;;28.90;54.80;;;;;;4952313;28;19949;-82
2022/05/08 16:38:35;;;;;;;;;;;28.50;55.50;;;;;;4941238;29;20228;-81
2022/05/08 16:41:01;;;;;;;;;;;28.30;55.70;;;;;;4954809;29;19921;-80
2022/05/08 16:43:32;;;;;;;;;;;28.20;55.40;;;;;;4833402;29;19930;-80
2022/05/08 16:45:58;;;;;;;;;;;28.30;55.10;;;;;;4878903;29;19968;-81
2022/05/08 16:48:24;;;;;;;;;;;28.00;55.40;;;;;;4939266;28;19910;-79
2022/05/08 16:58:07;;;;;;;;;;;27.40;57.20;;;;;;4902939;29;19933;-80
2022/05/08 17:00:39;;;;;;;;;;;26.80;59.20;;;;;;4929781;29;19918;-81
2022/05/08 17:03:05;;;;;;;;;;;26.60;59.40;;;;;;4939726;28;19919;-80
2022/05/08 17:05:30;;;;;;;;;;;26.20;59.80;;;;;;4952885;28;20001;-80
2022/05/08 17:08:25;;;;;;;;;;;26.00;61.00;;;;;;4958565;29;19947;-81
2022/05/08 17:11:11;;;;;;;;;;;25.80;60.60;;;;;;4956743;28;19911;-79
2022/05/08 17:16:35;;;;;;;;;;;26.00;61.40;;;;;;4925037;29;19911;-79
2022/05/08 17:19:00;;;;;;;;;;;25.50;61.60;;;;;;4919025;29;19945;-79
2022/05/08 17:21:33;;;;;;;;;;;25.40;62.20;;;;;;4934104;29;19933;-79
2022/05/08 17:24:02;;;;;;;;;;;25.10;62.70;;;;;;4919591;29;20161;-79
2022/05/08 17:28:45;;;;;;;;;;;24.90;63.30;;;;;;4945541;29;19954;-79
2022/05/08 17:29:15;;;;;;;;;;;24.70;63.90;;;;;;4957546;28;19985;-78
2022/05/08 17:31:40;;;;;;;;;;;24.60;64.30;;;;;;4956060;29;19976;-79
2022/05/08 17:34:06;;;;;;;;;;;24.30;64.50;;;;;;4912963;29;19911;-79
2022/05/08 17:36:32;;;;;;;;;;;24.50;64.70;;;;;;4891550;29;19985;-78
2022/05/08 17:38:57;;;;;;;;;;;24.60;64.20;;;;;;4916296;28;20049;-78
2022/05/08 17:41:23;;;;;;;;;;;24.80;64.10;;;;;;4960511;29;19914;-79
2022/05/08 17:43:49;;;;;;;;;;;24.70;63.80;;;;;;4939986;29;19923;-78
2022/05/08 17:46:19;;;;;;;;;;;24.60;64.10;;;;;;4919160;29;19978;-79
2022/05/08 17:48:46;;;;;;;;;;;24.50;64.10;;;;;;4939464;29;19946;-78
2022/05/08 17:51:14;;;;;;;;;;;24.40;64.30;;;;;;4945188;29;19910;-76
2022/05/08 17:53:43;;;;;;;;;;;24.20;64.60;;;;;;4927939;29;19939;-77
2022/05/08 18:06:43;;;;;;;;;;;;;;;;;;;;;
2022/05/08 18:13:48;;;;;;;;;;;22.10;70.00;;;;;;4822706;29;19927;-79
2022/05/08 18:20:33;;;;;;;;;;;21.70;71.30;;;;;;4794057;30;19917;-79
2022/05/08 18:23:08;;;;;;;;;;;21.40;71.70;;;;;;4793176;30;19952;-80
2022/05/08 18:25:47;;;;;;;;;;;21.20;72.20;;;;;;4785257;29;19985;-79
2022/05/08 18:28:13;;;;;;;;;;;21.10;72.80;;;;;;4773984;30;19913;-80
2022/05/08 18:30:58;;;;;;;;;;;20.80;73.10;;;;;;4779057;29;19924;-79
2022/05/08 18:33:25;;;;;;;;;;;20.70;73.50;;;;;;4784264;29;19925;-78
2022/05/08 18:35:51;;;;;;;;;;;20.60;73.90;;;;;;4774427;29;20011;-78
2022/05/08 18:38:17;;;;;;;;;;;20.50;74.30;;;;;;4790986;29;19964;-79
2022/05/08 18:40:43;;;;;;;;;;;20.30;74.70;;;;;;4786280;29;20002;-79
2022/05/08 18:43:10;;;;;;;;;;;20.20;75.20;;;;;;4773675;29;19913;-79
2022/05/08 18:45:36;;;;;;;;;;;20.10;75.70;;;;;;4804798;29;19913;-79
2022/05/08 18:48:24;;;;;;;;;;;20.00;75.90;;;;;;4780711;29;19913;-81
2022/05/08 18:54:37;;;;;;;;;;;19.80;77.10;;;;;;4870767;29;19964;-79
2022/05/08 18:57:03;;;;;;;;;;;19.60;77.70;;;;;;4907675;29;19982;-79
2022/05/08 18:59:31;;;;;;;;;;;19.50;78.20;;;;;;4926990;29;19907;-81
2022/05/08 19:02:03;;;;;;;;;;;19.40;78.70;;;;;;4953884;29;19954;-80
2022/05/08 19:04:33;;;;;;;;;;;19.30;79.20;;;;;;4937893;29;19915;-80
2022/05/08 19:06:59;;;;;;;;;;;19.20;79.70;;;;;;4906176;29;20005;-79
2022/05/08 19:16:00;;;;;;;;;;;18.80;81.80;;;;;;5699667;23;19918;-80
2022/05/08 19:18:29;;;;;;;;;;;18.70;82.50;;;;;;4964950;29;19918;-81
2022/05/08 19:27:29;;;;;;;;;;;18.50;83.50;;;;;;4883244;29;19918;-80
2022/05/08 19:29:58;;;;;;;;;;;18.40;83.90;;;;;;4955403;29;19930;-81
2022/05/08 19:38:57;;;;;;;;;;;18.30;85.20;;;;;;4946507;29;19918;-80
2022/05/08 19:44:52;;;;;;;;;;;18.00;86.00;;;;;;4956488;29;20153;-78
2022/05/08 19:47:18;;;;;;;;;;;17.90;86.50;;;;;;4963383;29;19993;-79
2022/05/08 19:49:45;;;;;;;;;;;17.80;86.90;;;;;;4914198;29;19911;-80
2022/05/08 19:52:39;;;;;;;;;;;17.80;87.10;;;;;;4919889;29;19974;-80
2022/05/08 19:55:11;;;;;;;;;;;17.70;87.20;;;;;;4944502;29;19941;-79
2022/05/08 20:01:05;;;;;;;;;;;17.60;87.20;;;;;;4950375;29;19986;-80
2022/05/08 20:03:31;;;;;;;;;;;17.50;87.90;;;;;;4959456;29;19910;-81
2022/05/08 20:09:48;;;;;;;;;;;17.40;89.10;;;;;;4963270;29;19917;-78
2022/05/08 20:12:13;;;;;;;;;;;17.30;89.20;;;;;;4925777;29;20014;-79
2022/05/08 20:14:40;;;;;;;;;;;17.20;89.70;;;;;;4959618;29;20300;-79
2022/05/08 20:30:31;;;;;;;;;;;16.80;91.20;;;;;;4842357;29;19962;-81
2022/05/08 20:33:01;;;;;;;;;;;16.70;91.10;;;;;;4865061;29;19912;-79
2022/05/08 20:35:29;;;;;;;;;;;16.70;91.20;;;;;;4880914;29;20107;-81
2022/05/08 20:37:57;;;;;;;;;;;16.70;91.10;;;;;;4882657;29;19983;-81
2022/05/08 20:40:23;;;;;;;;;;;16.70;91.00;;;;;;4863982;29;19927;-80
2022/05/08 20:42:49;;;;;;;;;;;16.60;91.20;;;;;;4866852;29;20250;-81
2022/05/08 20:45:15;;;;;;;;;;;16.60;91.30;;;;;;4862450;29;20037;-78
2022/05/08 20:47:41;;;;;;;;;;;16.50;91.60;;;;;;4834548;29;20004;-81
2022/05/08 20:50:08;;;;;;;;;;;16.50;91.60;;;;;;4880384;29;19924;-78
2022/05/08 20:52:34;;;;;;;;;;;16.30;91.90;;;;;;4877162;29;20079;-80
2022/05/08 20:55:00;;;;;;;;;;;16.30;92.00;;;;;;4880042;29;20045;-80
2022/05/08 20:57:26;;;;;;;;;;;16.20;92.00;;;;;;4876988;29;19938;-79
2022/05/08 20:59:52;;;;;;;;;;;16.10;92.30;;;;;;4879632;29;19907;-80
2022/05/08 21:02:32;;;;;;;;;;;16.00;92.40;;;;;;4867577;29;19920;-79
2022/05/08 21:08:32;;;;;;;;;;;15.80;92.50;;;;;;4918397;29;19910;-79
2022/05/08 21:11:10;;;;;;;;;;;15.90;92.50;;;;;;4912424;29;19982;-80
2022/05/08 21:13:36;;;;;;;;;;;15.90;92.70;;;;;;4937568;29;19910;-80
2022/05/08 21:16:02;;;;;;;;;;;15.90;92.70;;;;;;4916458;29;19985;-80
2022/05/08 21:18:27;;;;;;;;;;;15.90;93.10;;;;;;4925379;29;19969;-79
2022/05/08 21:20:53;;;;;;;;;;;15.80;92.80;;;;;;4933345;29;19922;-78
2022/05/08 21:23:19;;;;;;;;;;;15.80;92.90;;;;;;4940516;28;20923;-79
2022/05/08 21:25:47;;;;;;;;;;;15.80;92.80;;;;;;4909909;28;19950;-80
2022/05/08 21:28:13;;;;;;;;;;;15.70;92.90;;;;;;4932092;28;19911;-80
2022/05/08 21:30:38;;;;;;;;;;;15.70;92.80;;;;;;4936269;28;20255;-79
2022/05/08 21:33:05;;;;;;;;;;;15.60;93.10;;;;;;4941946;28;19918;-83
2022/05/08 21:35:32;;;;;;;;;;;15.60;93.30;;;;;;4920317;29;19915;-80
2022/05/08 21:38:00;;;;;;;;;;;15.50;93.40;;;;;;4938368;29;19911;-80
2022/05/08 21:40:26;;;;;;;;;;;15.40;93.60;;;;;;4920469;29;19929;-82
2022/05/08 21:42:52;;;;;;;;;;;15.40;93.90;;;;;;4937466;29;20179;-79
2022/05/08 21:45:17;;;;;;;;;;;15.30;94.00;;;;;;4932748;28;20256;-79
2022/05/08 21:47:52;;;;;;;;;;;15.20;94.10;;;;;;4952106;29;19910;-79
2022/05/08 21:50:17;;;;;;;;;;;15.20;94.50;;;;;;4948174;29;19911;-80
2022/05/08 21:52:49;;;;;;;;;;;15.10;94.80;;;;;;4952268;29;20948;-78